Tor Viking — SLJT — position and weather

sailwx.info

Track history (hours):
 
Tides and Currents Weather Stations Pressure Air Temp Water Temp Dewpoint Dewpoint Depression Visibility Wind Speed Wind Dir Waves Ship Positions

Tor Viking

Last reported at 2016-Nov-26 23:08 UTC. Time now 2016-Dec-07 20:25 UTC.
Position N 56°42' W 002°23'.
Warning: this ship's position is 10 days out of date.

Length 84 m; draft 6.6 m.

Type: Towing. MMSI: 266004000.

Date/timePositionNaut miles runAvg speedWind from/ knotsBaromVisibWave heightAir tempDewpointWater temp
2016-Nov-26 23:08N 56°42' W 002°23'26 3.4
2016-Nov-26 15:33N 56°21' W 001°57'4 3.6
2016-Nov-26 14:27N 56°17' W 001°54'4 3.5
2016-Nov-26 13:17N 56°13' W 001°50'6 8.3
2016-Nov-26 12:33N 56°08' W 001°45'7310.0
2016-Nov-26 05:17N 55°11' W 000°24'4910.4
2016-Nov-26 00:33N 54°32' E 000°26'35 2.5
2016-Nov-25 10:32N 54°03' E 001°02'  
2016-Nov-17 06:12N 54°25' E 000°35'20 5.4
2016-Nov-17 02:33N 54°41' E 000°14'  
Track history (hours):
 
Tides and Currents Weather Stations Pressure Air Temp Water Temp Dewpoint Dewpoint Depression Visibility Wind Speed Wind Dir Waves Ship Positions

Tor Viking

Last reported at 2016-Nov-26 23:08 UTC. Time now 2016-Dec-07 20:25 UTC.
Position N 56°42' W 002°23'.
Warning: this ship's position is 10 days out of date.

Length 84 m; draft 6.6 m.

Type: Towing. MMSI: 266004000.

Date/timePositionNaut miles runAvg speedWind from/ knotsBaromVisibWave heightAir tempDewpointWater temp
2016-Nov-26 23:08N 56°42' W 002°23'26 3.4
2016-Nov-26 15:33N 56°21' W 001°57'4 3.6
2016-Nov-26 14:27N 56°17' W 001°54'4 3.5
2016-Nov-26 13:17N 56°13' W 001°50'6 8.3
2016-Nov-26 12:33N 56°08' W 001°45'7310.0
2016-Nov-26 05:17N 55°11' W 000°24'4910.4
2016-Nov-26 00:33N 54°32' E 000°26'35 2.5
2016-Nov-25 10:32N 54°03' E 001°02'  
2016-Nov-17 06:12N 54°25' E 000°35'20 5.4
2016-Nov-17 02:33N 54°41' E 000°14'  

Dump ship's entire track history